sensor_id;sensor_type;location;lat;lon;timestamp;P1;durP1;ratioP1;P2;durP2;ratioP2
39750;SDS011;37579;51.074;17.004;2022-12-07T00:01:33;2.40;;;1.83;;
39750;SDS011;37579;51.074;17.004;2022-12-07T00:04:01;1.77;;;1.60;;
39750;SDS011;37579;51.074;17.004;2022-12-07T00:06:35;2.33;;;1.77;;
39750;SDS011;37579;51.074;17.004;2022-12-07T00:09:06;2.25;;;1.73;;
39750;SDS011;37579;51.074;17.004;2022-12-07T00:11:34;1.77;;;1.48;;
39750;SDS011;37579;51.074;17.004;2022-12-07T00:14:01;1.80;;;1.52;;
39750;SDS011;37579;51.074;17.004;2022-12-07T00:16:30;2.78;;;1.95;;
39750;SDS011;37579;51.074;17.004;2022-12-07T00:18:57;2.33;;;1.70;;
39750;SDS011;37579;51.074;17.004;2022-12-07T00:21:25;2.55;;;1.98;;
39750;SDS011;37579;51.074;17.004;2022-12-07T00:23:52;2.85;;;1.48;;
39750;SDS011;37579;51.074;17.004;2022-12-07T00:26:20;1.80;;;1.30;;
39750;SDS011;37579;51.074;17.004;2022-12-07T00:28:51;3.42;;;1.67;;
39750;SDS011;37579;51.074;17.004;2022-12-07T00:31:20;1.88;;;1.65;;
39750;SDS011;37579;51.074;17.004;2022-12-07T00:33:47;2.20;;;1.52;;
39750;SDS011;37579;51.074;17.004;2022-12-07T00:36:14;1.70;;;1.40;;
39750;SDS011;37579;51.074;17.004;2022-12-07T00:38:42;1.70;;;1.50;;
39750;SDS011;37579;51.074;17.004;2022-12-07T00:41:15;2.20;;;1.42;;
39750;SDS011;37579;51.074;17.004;2022-12-07T00:43:43;2.33;;;1.70;;
39750;SDS011;37579;51.074;17.004;2022-12-07T00:46:10;2.05;;;1.75;;
39750;SDS011;37579;51.074;17.004;2022-12-07T00:48:36;1.40;;;1.20;;
39750;SDS011;37579;51.074;17.004;2022-12-07T00:51:03;2.22;;;1.60;;
39750;SDS011;37579;51.074;17.004;2022-12-07T00:53:29;2.38;;;1.40;;
39750;SDS011;37579;51.074;17.004;2022-12-07T00:55:55;2.70;;;1.48;;
39750;SDS011;37579;51.074;17.004;2022-12-07T00:58:23;1.60;;;1.20;;
39750;SDS011;37579;51.074;17.004;2022-12-07T01:00:49;1.77;;;1.40;;
39750;SDS011;37579;51.074;17.004;2022-12-07T01:03:15;1.38;;;1.15;;
39750;SDS011;37579;51.074;17.004;2022-12-07T01:06:00;2.15;;;1.60;;
39750;SDS011;37579;51.074;17.004;2022-12-07T01:08:26;1.70;;;1.42;;
39750;SDS011;37579;51.074;17.004;2022-12-07T01:11:03;2.55;;;1.40;;
39750;SDS011;37579;51.074;17.004;2022-12-07T01:13:32;1.88;;;1.30;;
39750;SDS011;37579;51.074;17.004;2022-12-07T01:16:00;1.50;;;1.30;;
39750;SDS011;37579;51.074;17.004;2022-12-07T01:18:27;1.50;;;1.10;;
39750;SDS011;37579;51.074;17.004;2022-12-07T01:23:27;1.45;;;1.15;;
39750;SDS011;37579;51.074;17.004;2022-12-07T01:25:57;1.88;;;1.30;;
39750;SDS011;37579;51.074;17.004;2022-12-07T01:28:24;1.48;;;1.20;;
39750;SDS011;37579;51.074;17.004;2022-12-07T01:31:00;1.20;;;1.10;;
39750;SDS011;37579;51.074;17.004;2022-12-07T01:33:28;1.20;;;0.88;;
39750;SDS011;37579;51.074;17.004;2022-12-07T01:36:06;1.58;;;1.25;;
39750;SDS011;37579;51.074;17.004;2022-12-07T01:38:42;1.33;;;1.13;;
39750;SDS011;37579;51.074;17.004;2022-12-07T01:41:09;1.52;;;1.10;;
39750;SDS011;37579;51.074;17.004;2022-12-07T01:43:36;1.58;;;1.17;;
39750;SDS011;37579;51.074;17.004;2022-12-07T01:46:22;1.38;;;1.08;;
39750;SDS011;37579;51.074;17.004;2022-12-07T01:48:47;1.25;;;1.00;;
39750;SDS011;37579;51.074;17.004;2022-12-07T01:51:14;1.85;;;1.25;;
39750;SDS011;37579;51.074;17.004;2022-12-07T01:53:41;1.48;;;1.00;;
39750;SDS011;37579;51.074;17.004;2022-12-07T01:56:10;1.33;;;1.02;;
39750;SDS011;37579;51.074;17.004;2022-12-07T01:58:42;1.20;;;0.90;;
39750;SDS011;37579;51.074;17.004;2022-12-07T02:01:08;1.40;;;1.20;;
39750;SDS011;37579;51.074;17.004;2022-12-07T02:03:38;1.13;;;0.93;;
39750;SDS011;37579;51.074;17.004;2022-12-07T02:06:06;1.20;;;1.00;;
39750;SDS011;37579;51.074;17.004;2022-12-07T02:08:33;1.88;;;1.30;;
39750;SDS011;37579;51.074;17.004;2022-12-07T02:11:03;1.80;;;1.08;;
39750;SDS011;37579;51.074;17.004;2022-12-07T02:13:32;1.10;;;0.90;;
39750;SDS011;37579;51.074;17.004;2022-12-07T02:30:16;1.73;;;0.75;;
39750;SDS011;37579;51.074;17.004;2022-12-07T02:33:05;1.25;;;0.80;;
39750;SDS011;37579;51.074;17.004;2022-12-07T02:36:38;1.25;;;0.88;;
39750;SDS011;37579;51.074;17.004;2022-12-07T02:38:40;1.52;;;0.80;;
39750;SDS011;37579;51.074;17.004;2022-12-07T02:41:26;1.35;;;0.95;;
39750;SDS011;37579;51.074;17.004;2022-12-07T02:44:17;1.05;;;0.85;;
39750;SDS011;37579;51.074;17.004;2022-12-07T02:46:50;1.25;;;0.80;;
39750;SDS011;37579;51.074;17.004;2022-12-07T02:49:21;1.10;;;0.73;;
39750;SDS011;37579;51.074;17.004;2022-12-07T02:51:49;1.30;;;0.80;;
39750;SDS011;37579;51.074;17.004;2022-12-07T02:54:16;0.82;;;0.70;;
39750;SDS011;37579;51.074;17.004;2022-12-07T03:04:53;0.75;;;0.65;;
39750;SDS011;37579;51.074;17.004;2022-12-07T03:10:00;1.13;;;0.70;;
39750;SDS011;37579;51.074;17.004;2022-12-07T03:18:47;1.05;;;0.80;;
39750;SDS011;37579;51.074;17.004;2022-12-07T03:21:18;2.03;;;0.70;;
39750;SDS011;37579;51.074;17.004;2022-12-07T03:23:49;1.08;;;0.60;;
39750;SDS011;37579;51.074;17.004;2022-12-07T03:26:19;0.82;;;0.73;;
39750;SDS011;37579;51.074;17.004;2022-12-07T03:28:50;1.08;;;0.77;;
39750;SDS011;37579;51.074;17.004;2022-12-07T03:31:24;1.10;;;0.80;;
39750;SDS011;37579;51.074;17.004;2022-12-07T03:33:58;0.95;;;0.60;;
39750;SDS011;37579;51.074;17.004;2022-12-07T03:36:39;1.10;;;0.80;;
39750;SDS011;37579;51.074;17.004;2022-12-07T03:39:27;1.30;;;0.50;;
39750;SDS011;37579;51.074;17.004;2022-12-07T03:41:58;0.75;;;0.73;;
39750;SDS011;37579;51.074;17.004;2022-12-07T03:44:25;0.65;;;0.55;;
39750;SDS011;37579;51.074;17.004;2022-12-07T03:49:50;0.80;;;0.68;;
39750;SDS011;37579;51.074;17.004;2022-12-07T03:55:01;0.65;;;0.40;;
39750;SDS011;37579;51.074;17.004;2022-12-07T03:57:33;0.57;;;0.50;;
39750;SDS011;37579;51.074;17.004;2022-12-07T04:00:00;0.80;;;0.50;;
39750;SDS011;37579;51.074;17.004;2022-12-07T04:02:27;0.68;;;0.47;;
39750;SDS011;37579;51.074;17.004;2022-12-07T04:04:54;0.60;;;0.50;;
39750;SDS011;37579;51.074;17.004;2022-12-07T04:07:21;1.10;;;0.60;;
39750;SDS011;37579;51.074;17.004;2022-12-07T04:09:47;0.85;;;0.60;;
39750;SDS011;37579;51.074;17.004;2022-12-07T04:12:13;0.80;;;0.30;;
39750;SDS011;37579;51.074;17.004;2022-12-07T04:14:39;1.38;;;0.65;;
39750;SDS011;37579;51.074;17.004;2022-12-07T04:17:04;0.65;;;0.50;;
39750;SDS011;37579;51.074;17.004;2022-12-07T04:19:31;0.98;;;0.50;;
39750;SDS011;37579;51.074;17.004;2022-12-07T04:21:59;0.70;;;0.40;;
39750;SDS011;37579;51.074;17.004;2022-12-07T04:24:26;0.70;;;0.50;;
39750;SDS011;37579;51.074;17.004;2022-12-07T04:26:52;1.08;;;0.50;;
39750;SDS011;37579;51.074;17.004;2022-12-07T04:29:19;0.50;;;0.50;;
39750;SDS011;37579;51.074;17.004;2022-12-07T04:31:45;0.70;;;0.40;;
39750;SDS011;37579;51.074;17.004;2022-12-07T04:34:11;0.50;;;0.32;;
39750;SDS011;37579;51.074;17.004;2022-12-07T04:36:38;0.77;;;0.60;;
39750;SDS011;37579;51.074;17.004;2022-12-07T04:39:04;0.85;;;0.43;;
39750;SDS011;37579;51.074;17.004;2022-12-07T04:41:31;0.70;;;0.40;;
39750;SDS011;37579;51.074;17.004;2022-12-07T04:43:58;0.57;;;0.38;;
39750;SDS011;37579;51.074;17.004;2022-12-07T04:46:26;0.47;;;0.35;;
39750;SDS011;37579;51.074;17.004;2022-12-07T04:48:54;1.10;;;0.35;;
39750;SDS011;37579;51.074;17.004;2022-12-07T04:51:21;0.60;;;0.38;;
39750;SDS011;37579;51.074;17.004;2022-12-07T04:53:49;0.73;;;0.40;;
39750;SDS011;37579;51.074;17.004;2022-12-07T04:56:15;0.82;;;0.40;;
39750;SDS011;37579;51.074;17.004;2022-12-07T04:58:43;0.55;;;0.40;;
39750;SDS011;37579;51.074;17.004;2022-12-07T05:01:10;0.60;;;0.40;;
39750;SDS011;37579;51.074;17.004;2022-12-07T05:03:36;0.50;;;0.30;;
39750;SDS011;37579;51.074;17.004;2022-12-07T05:06:03;0.55;;;0.30;;
39750;SDS011;37579;51.074;17.004;2022-12-07T05:08:29;0.70;;;0.35;;
39750;SDS011;37579;51.074;17.004;2022-12-07T05:10:55;0.70;;;0.43;;
39750;SDS011;37579;51.074;17.004;2022-12-07T05:13:21;0.47;;;0.32;;
39750;SDS011;37579;51.074;17.004;2022-12-07T05:15:47;0.55;;;0.40;;
39750;SDS011;37579;51.074;17.004;2022-12-07T05:18:13;0.57;;;0.25;;
39750;SDS011;37579;51.074;17.004;2022-12-07T05:20:39;0.57;;;0.40;;
39750;SDS011;37579;51.074;17.004;2022-12-07T05:23:06;0.77;;;0.30;;
39750;SDS011;37579;51.074;17.004;2022-12-07T05:25:31;0.93;;;0.30;;
39750;SDS011;37579;51.074;17.004;2022-12-07T05:27:57;0.52;;;0.40;;
39750;SDS011;37579;51.074;17.004;2022-12-07T05:30:23;1.20;;;0.35;;
39750;SDS011;37579;51.074;17.004;2022-12-07T05:32:50;0.50;;;0.25;;
39750;SDS011;37579;51.074;17.004;2022-12-07T05:35:16;0.50;;;0.43;;
39750;SDS011;37579;51.074;17.004;2022-12-07T05:37:43;0.40;;;0.30;;
39750;SDS011;37579;51.074;17.004;2022-12-07T05:40:09;0.30;;;0.20;;
39750;SDS011;37579;51.074;17.004;2022-12-07T05:42:36;0.60;;;0.40;;
39750;SDS011;37579;51.074;17.004;2022-12-07T05:45:02;0.68;;;0.40;;
39750;SDS011;37579;51.074;17.004;2022-12-07T05:47:28;0.65;;;0.43;;
39750;SDS011;37579;51.074;17.004;2022-12-07T05:49:54;0.70;;;0.52;;
39750;SDS011;37579;51.074;17.004;2022-12-07T05:52:20;0.40;;;0.32;;
39750;SDS011;37579;51.074;17.004;2022-12-07T05:54:46;0.38;;;0.38;;
39750;SDS011;37579;51.074;17.004;2022-12-07T05:57:12;0.57;;;0.40;;
39750;SDS011;37579;51.074;17.004;2022-12-07T05:59:38;0.73;;;0.43;;
39750;SDS011;37579;51.074;17.004;2022-12-07T06:02:05;0.85;;;0.30;;
39750;SDS011;37579;51.074;17.004;2022-12-07T06:04:36;0.47;;;0.20;;
39750;SDS011;37579;51.074;17.004;2022-12-07T06:07:07;0.50;;;0.38;;
39750;SDS011;37579;51.074;17.004;2022-12-07T06:09:33;0.73;;;0.52;;
39750;SDS011;37579;51.074;17.004;2022-12-07T06:12:00;0.52;;;0.30;;
39750;SDS011;37579;51.074;17.004;2022-12-07T06:14:45;0.32;;;0.20;;
39750;SDS011;37579;51.074;17.004;2022-12-07T06:17:11;0.63;;;0.40;;
39750;SDS011;37579;51.074;17.004;2022-12-07T06:19:37;1.48;;;0.22;;
39750;SDS011;37579;51.074;17.004;2022-12-07T06:22:04;0.57;;;0.40;;
39750;SDS011;37579;51.074;17.004;2022-12-07T06:24:30;0.40;;;0.30;;
39750;SDS011;37579;51.074;17.004;2022-12-07T06:26:56;0.45;;;0.30;;
39750;SDS011;37579;51.074;17.004;2022-12-07T06:29:22;0.63;;;0.40;;
39750;SDS011;37579;51.074;17.004;2022-12-07T06:31:48;0.38;;;0.25;;
39750;SDS011;37579;51.074;17.004;2022-12-07T06:34:15;0.68;;;0.38;;
39750;SDS011;37579;51.074;17.004;2022-12-07T06:36:43;0.70;;;0.40;;
39750;SDS011;37579;51.074;17.004;2022-12-07T06:39:09;0.30;;;0.20;;
39750;SDS011;37579;51.074;17.004;2022-12-07T06:41:38;0.35;;;0.30;;
39750;SDS011;37579;51.074;17.004;2022-12-07T06:44:05;1.50;;;0.73;;
39750;SDS011;37579;51.074;17.004;2022-12-07T06:46:31;0.45;;;0.30;;
39750;SDS011;37579;51.074;17.004;2022-12-07T06:48:57;0.60;;;0.40;;
39750;SDS011;37579;51.074;17.004;2022-12-07T06:51:23;0.52;;;0.50;;
39750;SDS011;37579;51.074;17.004;2022-12-07T06:53:48;0.50;;;0.30;;
39750;SDS011;37579;51.074;17.004;2022-12-07T06:56:14;0.98;;;0.30;;
39750;SDS011;37579;51.074;17.004;2022-12-07T06:58:40;0.50;;;0.40;;
39750;SDS011;37579;51.074;17.004;2022-12-07T07:01:10;0.40;;;0.40;;
39750;SDS011;37579;51.074;17.004;2022-12-07T07:03:37;0.90;;;0.30;;
39750;SDS011;37579;51.074;17.004;2022-12-07T07:06:03;0.57;;;0.40;;
39750;SDS011;37579;51.074;17.004;2022-12-07T07:08:29;1.08;;;0.70;;
39750;SDS011;37579;51.074;17.004;2022-12-07T07:10:55;0.95;;;0.40;;
39750;SDS011;37579;51.074;17.004;2022-12-07T07:13:21;0.65;;;0.50;;
39750;SDS011;37579;51.074;17.004;2022-12-07T07:15:47;0.52;;;0.40;;
39750;SDS011;37579;51.074;17.004;2022-12-07T07:18:13;1.52;;;0.40;;
39750;SDS011;37579;51.074;17.004;2022-12-07T07:20:39;1.05;;;0.28;;
39750;SDS011;37579;51.074;17.004;2022-12-07T07:23:05;0.70;;;0.30;;
39750;SDS011;37579;51.074;17.004;2022-12-07T07:25:31;1.30;;;0.50;;
39750;SDS011;37579;51.074;17.004;2022-12-07T07:27:57;2.53;;;0.65;;
39750;SDS011;37579;51.074;17.004;2022-12-07T07:30:23;0.80;;;0.50;;
39750;SDS011;37579;51.074;17.004;2022-12-07T07:32:49;0.98;;;0.57;;
39750;SDS011;37579;51.074;17.004;2022-12-07T07:35:15;1.88;;;0.50;;
39750;SDS011;37579;51.074;17.004;2022-12-07T07:37:41;3.38;;;0.60;;
39750;SDS011;37579;51.074;17.004;2022-12-07T07:40:07;6.03;;;2.00;;
39750;SDS011;37579;51.074;17.004;2022-12-07T07:42:34;16.15;;;5.53;;
39750;SDS011;37579;51.074;17.004;2022-12-07T07:45:00;21.90;;;7.63;;
39750;SDS011;37579;51.074;17.004;2022-12-07T07:47:26;30.92;;;10.55;;
39750;SDS011;37579;51.074;17.004;2022-12-07T07:49:52;20.02;;;8.15;;
39750;SDS011;37579;51.074;17.004;2022-12-07T07:52:17;23.13;;;8.02;;
39750;SDS011;37579;51.074;17.004;2022-12-07T07:54:43;25.13;;;7.65;;
39750;SDS011;37579;51.074;17.004;2022-12-07T07:57:09;22.98;;;8.18;;
39750;SDS011;37579;51.074;17.004;2022-12-07T07:59:34;19.52;;;7.85;;
39750;SDS011;37579;51.074;17.004;2022-12-07T08:02:00;21.63;;;7.35;;
39750;SDS011;37579;51.074;17.004;2022-12-07T08:04:26;20.67;;;7.97;;
39750;SDS011;37579;51.074;17.004;2022-12-07T08:06:52;22.52;;;6.15;;
39750;SDS011;37579;51.074;17.004;2022-12-07T08:09:17;16.45;;;7.00;;
39750;SDS011;37579;51.074;17.004;2022-12-07T08:11:43;15.25;;;5.97;;
39750;SDS011;37579;51.074;17.004;2022-12-07T08:14:10;19.15;;;6.15;;
39750;SDS011;37579;51.074;17.004;2022-12-07T08:16:37;13.98;;;5.13;;
39750;SDS011;37579;51.074;17.004;2022-12-07T08:19:04;13.52;;;5.53;;
39750;SDS011;37579;51.074;17.004;2022-12-07T08:21:30;15.52;;;4.95;;
39750;SDS011;37579;51.074;17.004;2022-12-07T08:23:56;15.38;;;5.18;;
39750;SDS011;37579;51.074;17.004;2022-12-07T08:26:22;14.30;;;5.53;;
39750;SDS011;37579;51.074;17.004;2022-12-07T08:28:48;14.18;;;4.93;;
39750;SDS011;37579;51.074;17.004;2022-12-07T08:31:16;11.15;;;4.10;;
39750;SDS011;37579;51.074;17.004;2022-12-07T08:33:44;13.93;;;4.43;;
39750;SDS011;37579;51.074;17.004;2022-12-07T08:36:11;13.25;;;4.63;;
39750;SDS011;37579;51.074;17.004;2022-12-07T08:38:38;10.10;;;4.03;;
39750;SDS011;37579;51.074;17.004;2022-12-07T08:41:06;11.73;;;3.58;;
39750;SDS011;37579;51.074;17.004;2022-12-07T08:43:33;13.02;;;4.60;;
39750;SDS011;37579;51.074;17.004;2022-12-07T08:48:31;7.85;;;3.65;;
39750;SDS011;37579;51.074;17.004;2022-12-07T08:50:58;10.90;;;3.55;;
39750;SDS011;37579;51.074;17.004;2022-12-07T08:53:24;14.10;;;3.28;;
39750;SDS011;37579;51.074;17.004;2022-12-07T08:55:49;7.47;;;3.20;;
39750;SDS011;37579;51.074;17.004;2022-12-07T08:58:16;10.80;;;2.88;;
39750;SDS011;37579;51.074;17.004;2022-12-07T09:00:41;6.60;;;2.30;;
39750;SDS011;37579;51.074;17.004;2022-12-07T09:03:07;6.72;;;2.90;;
39750;SDS011;37579;51.074;17.004;2022-12-07T09:05:33;5.85;;;2.50;;
39750;SDS011;37579;51.074;17.004;2022-12-07T09:08:00;4.57;;;1.95;;
39750;SDS011;37579;51.074;17.004;2022-12-07T09:10:27;7.30;;;2.45;;
39750;SDS011;37579;51.074;17.004;2022-12-07T09:12:54;6.57;;;3.15;;
39750;SDS011;37579;51.074;17.004;2022-12-07T09:15:20;10.35;;;3.35;;
39750;SDS011;37579;51.074;17.004;2022-12-07T09:17:46;9.45;;;2.58;;
39750;SDS011;37579;51.074;17.004;2022-12-07T09:20:12;7.55;;;2.50;;
39750;SDS011;37579;51.074;17.004;2022-12-07T09:22:37;8.05;;;2.42;;
39750;SDS011;37579;51.074;17.004;2022-12-07T09:25:04;7.50;;;2.53;;
39750;SDS011;37579;51.074;17.004;2022-12-07T09:27:30;7.10;;;2.05;;
39750;SDS011;37579;51.074;17.004;2022-12-07T09:29:56;11.35;;;2.80;;
39750;SDS011;37579;51.074;17.004;2022-12-07T09:32:22;10.00;;;2.92;;
39750;SDS011;37579;51.074;17.004;2022-12-07T09:34:48;6.78;;;3.00;;
39750;SDS011;37579;51.074;17.004;2022-12-07T09:37:14;5.93;;;2.10;;
39750;SDS011;37579;51.074;17.004;2022-12-07T09:39:40;7.43;;;2.50;;
39750;SDS011;37579;51.074;17.004;2022-12-07T09:42:06;11.55;;;2.40;;
39750;SDS011;37579;51.074;17.004;2022-12-07T09:44:33;7.13;;;2.30;;
39750;SDS011;37579;51.074;17.004;2022-12-07T09:47:00;5.05;;;2.00;;
39750;SDS011;37579;51.074;17.004;2022-12-07T09:49:28;9.20;;;2.03;;
39750;SDS011;37579;51.074;17.004;2022-12-07T09:52:37;4.00;;;2.00;;
39750;SDS011;37579;51.074;17.004;2022-12-07T09:54:47;6.47;;;2.38;;
39750;SDS011;37579;51.074;17.004;2022-12-07T09:57:15;10.27;;;2.97;;
39750;SDS011;37579;51.074;17.004;2022-12-07T09:59:41;9.80;;;2.03;;
39750;SDS011;37579;51.074;17.004;2022-12-07T10:05:09;8.90;;;2.40;;
39750;SDS011;37579;51.074;17.004;2022-12-07T10:07:41;6.90;;;2.20;;
39750;SDS011;37579;51.074;17.004;2022-12-07T10:10:15;5.53;;;2.03;;
39750;SDS011;37579;51.074;17.004;2022-12-07T10:15:43;7.85;;;2.08;;
39750;SDS011;37579;51.074;17.004;2022-12-07T10:23:34;10.27;;;1.83;;
39750;SDS011;37579;51.074;17.004;2022-12-07T10:26:18;6.15;;;2.20;;
39750;SDS011;37579;51.074;17.004;2022-12-07T10:28:56;7.18;;;2.40;;
39750;SDS011;37579;51.074;17.004;2022-12-07T10:31:25;4.35;;;1.80;;
39750;SDS011;37579;51.074;17.004;2022-12-07T10:33:52;11.27;;;4.80;;
39750;SDS011;37579;51.074;17.004;2022-12-07T10:39:02;31.80;;;15.38;;
39750;SDS011;37579;51.074;17.004;2022-12-07T10:41:35;54.92;;;28.58;;
39750;SDS011;37579;51.074;17.004;2022-12-07T10:44:20;82.30;;;40.05;;
39750;SDS011;37579;51.074;17.004;2022-12-07T10:46:53;89.78;;;42.67;;
39750;SDS011;37579;51.074;17.004;2022-12-07T10:55:15;86.63;;;41.67;;
39750;SDS011;37579;51.074;17.004;2022-12-07T10:58:07;81.18;;;39.47;;
39750;SDS011;37579;51.074;17.004;2022-12-07T11:00:44;85.78;;;40.33;;
39750;SDS011;37579;51.074;17.004;2022-12-07T11:11:16;81.72;;;37.60;;
39750;SDS011;37579;51.074;17.004;2022-12-07T11:14:03;73.10;;;36.35;;
39750;SDS011;37579;51.074;17.004;2022-12-07T11:17:08;74.00;;;35.50;;
39750;SDS011;37579;51.074;17.004;2022-12-07T11:23:03;66.90;;;34.63;;
39750;SDS011;37579;51.074;17.004;2022-12-07T11:30:57;63.60;;;32.75;;
39750;SDS011;37579;51.074;17.004;2022-12-07T11:33:44;61.28;;;30.63;;
39750;SDS011;37579;51.074;17.004;2022-12-07T11:39:37;60.90;;;31.85;;
39750;SDS011;37579;51.074;17.004;2022-12-07T11:42:14;57.33;;;29.13;;
39750;SDS011;37579;51.074;17.004;2022-12-07T11:59:06;51.10;;;23.85;;
39750;SDS011;37579;51.074;17.004;2022-12-07T12:01:24;45.90;;;24.23;;
39750;SDS011;37579;51.074;17.004;2022-12-07T12:06:37;44.05;;;22.23;;
39750;SDS011;37579;51.074;17.004;2022-12-07T12:17:21;40.58;;;20.25;;
39750;SDS011;37579;51.074;17.004;2022-12-07T12:28:10;39.45;;;17.65;;
39750;SDS011;37579;51.074;17.004;2022-12-07T12:33:46;31.67;;;16.90;;
39750;SDS011;37579;51.074;17.004;2022-12-07T12:46:50;31.63;;;13.95;;
39750;SDS011;37579;51.074;17.004;2022-12-07T12:54:21;28.42;;;13.95;;
39750;SDS011;37579;51.074;17.004;2022-12-07T12:57:11;25.95;;;12.80;;
39750;SDS011;37579;51.074;17.004;2022-12-07T12:59:42;22.55;;;13.13;;
39750;SDS011;37579;51.074;17.004;2022-12-07T13:26:18;20.13;;;9.35;;
39750;SDS011;37579;51.074;17.004;2022-12-07T13:31:38;18.73;;;10.25;;
39750;SDS011;37579;51.074;17.004;2022-12-07T13:35:07;19.17;;;10.10;;
39750;SDS011;37579;51.074;17.004;2022-12-07T13:39:59;16.63;;;9.23;;
39750;SDS011;37579;51.074;17.004;2022-12-07T13:42:37;18.58;;;9.50;;
39750;SDS011;37579;51.074;17.004;2022-12-07T13:48:14;14.07;;;7.85;;
39750;SDS011;37579;51.074;17.004;2022-12-07T13:50:53;15.00;;;8.35;;
39750;SDS011;37579;51.074;17.004;2022-12-07T13:53:20;14.25;;;7.90;;
39750;SDS011;37579;51.074;17.004;2022-12-07T13:55:46;13.25;;;7.80;;
39750;SDS011;37579;51.074;17.004;2022-12-07T13:58:13;14.02;;;7.82;;
39750;SDS011;37579;51.074;17.004;2022-12-07T14:00:39;13.90;;;8.07;;
39750;SDS011;37579;51.074;17.004;2022-12-07T14:05:38;12.60;;;7.32;;
39750;SDS011;37579;51.074;17.004;2022-12-07T14:08:21;13.98;;;6.93;;
39750;SDS011;37579;51.074;17.004;2022-12-07T14:15:50;14.25;;;7.18;;
39750;SDS011;37579;51.074;17.004;2022-12-07T14:23:32;10.32;;;6.25;;
39750;SDS011;37579;51.074;17.004;2022-12-07T14:26:09;14.07;;;6.90;;
39750;SDS011;37579;51.074;17.004;2022-12-07T14:28:41;15.17;;;7.50;;
39750;SDS011;37579;51.074;17.004;2022-12-07T14:31:18;10.18;;;6.13;;
39750;SDS011;37579;51.074;17.004;2022-12-07T14:33:49;10.90;;;6.10;;
39750;SDS011;37579;51.074;17.004;2022-12-07T14:36:15;12.63;;;6.50;;
39750;SDS011;37579;51.074;17.004;2022-12-07T14:38:41;11.40;;;5.65;;
39750;SDS011;37579;51.074;17.004;2022-12-07T14:41:12;10.15;;;5.68;;
39750;SDS011;37579;51.074;17.004;2022-12-07T14:43:58;10.95;;;5.43;;
39750;SDS011;37579;51.074;17.004;2022-12-07T14:46:24;9.85;;;5.45;;
39750;SDS011;37579;51.074;17.004;2022-12-07T14:48:50;11.90;;;5.05;;
39750;SDS011;37579;51.074;17.004;2022-12-07T14:51:16;9.52;;;5.20;;
39750;SDS011;37579;51.074;17.004;2022-12-07T14:53:46;8.68;;;5.05;;
39750;SDS011;37579;51.074;17.004;2022-12-07T14:56:15;9.63;;;5.47;;
39750;SDS011;37579;51.074;17.004;2022-12-07T14:58:41;9.40;;;5.07;;
39750;SDS011;37579;51.074;17.004;2022-12-07T15:01:06;7.47;;;4.43;;
39750;SDS011;37579;51.074;17.004;2022-12-07T15:03:32;7.57;;;4.70;;
39750;SDS011;37579;51.074;17.004;2022-12-07T15:06:00;7.97;;;4.53;;
39750;SDS011;37579;51.074;17.004;2022-12-07T15:08:26;7.07;;;4.22;;
39750;SDS011;37579;51.074;17.004;2022-12-07T15:10:52;6.85;;;4.38;;
39750;SDS011;37579;51.074;17.004;2022-12-07T15:13:18;7.97;;;4.28;;
39750;SDS011;37579;51.074;17.004;2022-12-07T15:16:02;8.25;;;4.57;;
39750;SDS011;37579;51.074;17.004;2022-12-07T15:18:28;5.75;;;3.67;;
39750;SDS011;37579;51.074;17.004;2022-12-07T15:20:54;7.70;;;4.40;;
39750;SDS011;37579;51.074;17.004;2022-12-07T15:23:20;6.50;;;4.03;;
39750;SDS011;37579;51.074;17.004;2022-12-07T15:25:47;6.80;;;4.10;;
39750;SDS011;37579;51.074;17.004;2022-12-07T15:28:14;8.77;;;4.20;;
39750;SDS011;37579;51.074;17.004;2022-12-07T15:30:40;7.78;;;3.90;;
39750;SDS011;37579;51.074;17.004;2022-12-07T15:33:10;6.25;;;4.00;;
39750;SDS011;37579;51.074;17.004;2022-12-07T15:35:38;6.25;;;3.38;;
39750;SDS011;37579;51.074;17.004;2022-12-07T15:38:08;6.25;;;3.60;;
39750;SDS011;37579;51.074;17.004;2022-12-07T15:40:34;7.30;;;3.42;;
39750;SDS011;37579;51.074;17.004;2022-12-07T15:43:01;7.13;;;3.22;;
39750;SDS011;37579;51.074;17.004;2022-12-07T15:45:27;7.03;;;3.33;;
39750;SDS011;37579;51.074;17.004;2022-12-07T15:47:53;6.50;;;3.38;;
39750;SDS011;37579;51.074;17.004;2022-12-07T15:50:20;5.20;;;3.13;;
39750;SDS011;37579;51.074;17.004;2022-12-07T15:52:47;4.45;;;2.67;;
39750;SDS011;37579;51.074;17.004;2022-12-07T15:55:13;5.97;;;3.47;;
39750;SDS011;37579;51.074;17.004;2022-12-07T15:57:39;5.18;;;3.25;;
39750;SDS011;37579;51.074;17.004;2022-12-07T16:00:06;7.97;;;3.28;;
39750;SDS011;37579;51.074;17.004;2022-12-07T16:02:37;9.73;;;3.15;;
39750;SDS011;37579;51.074;17.004;2022-12-07T16:05:03;6.45;;;3.10;;
39750;SDS011;37579;51.074;17.004;2022-12-07T16:07:29;7.15;;;2.95;;
39750;SDS011;37579;51.074;17.004;2022-12-07T16:09:55;7.05;;;3.08;;
39750;SDS011;37579;51.074;17.004;2022-12-07T16:12:21;7.65;;;3.33;;
39750;SDS011;37579;51.074;17.004;2022-12-07T16:14:46;7.13;;;3.03;;
39750;SDS011;37579;51.074;17.004;2022-12-07T16:17:12;4.00;;;2.85;;
39750;SDS011;37579;51.074;17.004;2022-12-07T16:19:38;6.07;;;2.75;;
39750;SDS011;37579;51.074;17.004;2022-12-07T16:22:04;5.50;;;2.88;;
39750;SDS011;37579;51.074;17.004;2022-12-07T16:24:32;5.65;;;2.50;;
39750;SDS011;37579;51.074;17.004;2022-12-07T16:26:58;6.65;;;2.47;;
39750;SDS011;37579;51.074;17.004;2022-12-07T16:29:24;5.78;;;2.95;;
39750;SDS011;37579;51.074;17.004;2022-12-07T16:31:50;5.03;;;2.30;;
39750;SDS011;37579;51.074;17.004;2022-12-07T16:34:16;6.80;;;2.60;;
39750;SDS011;37579;51.074;17.004;2022-12-07T16:36:43;4.15;;;2.03;;
39750;SDS011;37579;51.074;17.004;2022-12-07T16:39:09;5.38;;;2.85;;
39750;SDS011;37579;51.074;17.004;2022-12-07T16:41:35;6.05;;;2.10;;
39750;SDS011;37579;51.074;17.004;2022-12-07T16:44:02;6.10;;;2.40;;
39750;SDS011;37579;51.074;17.004;2022-12-07T16:46:31;4.80;;;2.25;;
39750;SDS011;37579;51.074;17.004;2022-12-07T16:48:58;6.18;;;2.10;;
39750;SDS011;37579;51.074;17.004;2022-12-07T16:51:23;4.60;;;2.30;;
39750;SDS011;37579;51.074;17.004;2022-12-07T16:53:51;3.15;;;1.80;;
39750;SDS011;37579;51.074;17.004;2022-12-07T16:56:18;4.82;;;2.08;;
39750;SDS011;37579;51.074;17.004;2022-12-07T16:58:44;3.47;;;2.03;;
39750;SDS011;37579;51.074;17.004;2022-12-07T17:01:18;4.10;;;2.33;;
39750;SDS011;37579;51.074;17.004;2022-12-07T17:03:46;5.47;;;1.80;;
39750;SDS011;37579;51.074;17.004;2022-12-07T17:06:16;3.13;;;1.80;;
39750;SDS011;37579;51.074;17.004;2022-12-07T17:08:46;5.45;;;2.03;;
39750;SDS011;37579;51.074;17.004;2022-12-07T17:11:14;3.55;;;1.67;;
39750;SDS011;37579;51.074;17.004;2022-12-07T17:13:44;5.72;;;1.85;;
39750;SDS011;37579;51.074;17.004;2022-12-07T17:16:29;3.83;;;1.92;;
39750;SDS011;37579;51.074;17.004;2022-12-07T17:18:55;2.78;;;1.58;;
39750;SDS011;37579;51.074;17.004;2022-12-07T17:21:21;4.15;;;2.20;;
39750;SDS011;37579;51.074;17.004;2022-12-07T17:23:47;2.67;;;1.42;;
39750;SDS011;37579;51.074;17.004;2022-12-07T17:26:15;6.80;;;1.80;;
39750;SDS011;37579;51.074;17.004;2022-12-07T17:28:43;3.97;;;1.88;;
39750;SDS011;37579;51.074;17.004;2022-12-07T17:31:10;4.20;;;1.63;;
39750;SDS011;37579;51.074;17.004;2022-12-07T17:33:37;3.78;;;1.60;;
39750;SDS011;37579;51.074;17.004;2022-12-07T17:36:10;5.85;;;1.85;;
39750;SDS011;37579;51.074;17.004;2022-12-07T17:38:43;5.10;;;1.60;;
39750;SDS011;37579;51.074;17.004;2022-12-07T17:41:17;3.15;;;1.40;;